Terminal Aerodrome Forecast
Issued by NWS

Home | Current Version | Previous Version | Text Only | Print | Product List | Glossary On
Versions: 1 2 3 4 5 6 7 8 9 10 11 12 13 14
000
FTUS45 KGJT 302341
TAFEGE
TAF
KEGE 302341Z 3100/3124 27009KT P6SM VCTS SCT090CB BKN200
      TEMPO 3100/3102 VRB15G30KT -TSRA SCT050 BKN090CB
     FM310300 10005KT P6SM SCT250
     FM310800 00000KT P6SM SCT250
     FM311800 30006KT P6SM SCT250
     FM312000 27006KT P6SM SCT100 SCT250
      AMD LTD TO CLD VIS AND WIND 3101/3113=

USA.gov is the U.S. government's official web portal to all federal, state and local government web resources and services.